Hawley, PA (18428)

10:09 AM EST on February 11, 2016 (GMT -0500)
WSPOA Lake Wallepaupack Yacht Club | | Change Station
CLOSE
Current Station
Personal Weather Station
Location: Tafton, PA
Elevation: 1293 ft
Nearby Weather Stations

Elev 1293 ft 41.42 °N, 75.20 °W | Updated 6 minutes ago

Partly Cloudy
Partly Cloudy
15.8 °F
Feels Like 7 °F
N
6.3
Wind Variable Wind from SW

Today
High -- | Low -- °F
--% Chance of Precip.
Yesterday
High -- | Low -- °F
Precip. -- in
Pressure 29.87 in
Visibility 10.0 miles
Clouds Scattered Clouds 3900 ft
Windchill 7 °F
Dew Point 8 °F
Humidity 72%
Rainfall 0.00 in
Snow Depth Not available.
7:01 AM 5:28 PM
Waxing Crescent, 12% visible
METAR KMPO 111453Z AUTO 29016G29KT 10SM SCT039 M11/M19 A2977 RMK AO2 PK WND 30031/1425 SLP113 T11061189 51017
Pressure 29.87 in
Visibility 10.0 miles
Clouds Scattered Clouds 3900 ft
Windchill 7 °F
Dew Point 8 °F
Humidity 72%
Rainfall 0.00 in
Snow Depth Not available.
7:01 AM 5:28 PM
Waxing Crescent, 12% visible
METAR KMPO 111453Z AUTO 29016G29KT 10SM SCT039 M11/M19 A2977 RMK AO2 PK WND 30031/1425 SLP113 T11061189 51017

10-Day Weather Forecast

Almanac

Astronomy

Feb. 11, 2016 Rise Set
Actual Time
Civil Twilight
Nautical Twilight
Astronomical Twilight
Moon
Length of Visible Light
Length of Day
Tomorrow will be .
, % of the Moon is Illuminated

Today's Extremes

State Highs State Lows

Community

WunderPhotos

Upload Photos

1,892,059 photos uploaded!

WunderBlog® & News

Nearby

Air Quality

  Air Quality AQ Index Pollutant
Not available.

Snow Depth

Station Depth Elevation

Earthquake Activity

City Distance Mag. Time & Date
Minimum magnitude displayed is 2.5.

Coastal Water Temperatures

Place Temperature

Stations

Nearby Weather Stations

Station Location Temp. Windchill Dew Point Humidity Wind Precip. Elev Updated Type
                   

Watches & Warnings

There are currently no watches in effect.